createdAt,value
2018-06-20T00:00:18.896Z,5.72
2018-06-20T00:01:22.905Z,5.20
2018-06-20T00:02:27.017Z,5.75
2018-06-20T00:03:31.119Z,5.72
2018-06-20T00:04:35.184Z,4.78
2018-06-20T00:05:39.282Z,5.28
2018-06-20T00:06:43.313Z,4.95
2018-06-20T00:07:47.449Z,5.35
2018-06-20T00:08:51.778Z,5.37
2018-06-20T00:09:55.854Z,4.90
2018-06-20T00:10:59.853Z,6.00
2018-06-20T00:12:05.064Z,6.60
2018-06-20T00:13:10.889Z,5.42
2018-06-20T00:14:14.846Z,5.40
2018-06-20T00:15:18.846Z,5.72
2018-06-20T00:16:22.955Z,4.80
2018-06-20T00:17:26.995Z,5.08
2018-06-20T00:18:30.747Z,5.45
2018-06-20T00:19:34.659Z,5.12
2018-06-20T00:20:38.658Z,5.40
2018-06-20T00:21:42.913Z,4.75
2018-06-20T00:22:46.649Z,4.92
2018-06-20T00:23:50.523Z,5.35
2018-06-20T00:24:54.656Z,5.58
2018-06-20T00:25:58.639Z,5.42
2018-06-20T00:27:02.654Z,5.90
2018-06-20T00:28:06.689Z,5.80
2018-06-20T00:29:10.731Z,5.60
2018-06-20T00:30:14.790Z,6.05
2018-06-20T00:31:18.780Z,5.42
2018-06-20T00:32:22.772Z,5.55
2018-06-20T00:33:26.979Z,5.40
2018-06-20T00:34:30.983Z,5.33
2018-06-20T00:35:35.017Z,5.08
2018-06-20T00:36:39.068Z,5.65
2018-06-20T00:37:43.091Z,5.05
2018-06-20T00:38:47.143Z,5.30
2018-06-20T00:39:51.174Z,5.20
2018-06-20T00:40:55.194Z,6.12
2018-06-20T00:41:59.205Z,5.25
2018-06-20T00:43:03.215Z,5.65
2018-06-20T00:44:07.593Z,5.67
2018-06-20T00:45:11.716Z,5.92
2018-06-20T00:46:15.726Z,4.92
2018-06-20T00:47:19.885Z,5.30
2018-06-20T00:48:23.903Z,5.10
2018-06-20T00:49:27.967Z,5.50
2018-06-20T00:50:32.003Z,6.35
2018-06-20T00:51:36.061Z,5.47
2018-06-20T00:52:40.059Z,6.00
2018-06-20T00:53:44.088Z,5.00
2018-06-20T00:54:48.135Z,4.78
2018-06-20T00:56:03.808Z,5.15
2018-06-20T00:57:07.845Z,5.20
2018-06-20T00:58:11.589Z,5.83
2018-06-20T00:59:15.509Z,5.80
2018-06-20T01:00:19.601Z,6.17
2018-06-20T01:01:23.908Z,5.90
2018-06-20T01:02:27.936Z,5.45
2018-06-20T01:03:31.937Z,5.90
2018-06-20T01:04:35.955Z,5.22
2018-06-20T01:05:40.035Z,4.97
2018-06-20T01:06:44.054Z,4.97
2018-06-20T01:07:48.078Z,5.62
2018-06-20T01:08:55.810Z,5.30
2018-06-20T01:09:59.835Z,5.58
2018-06-20T01:11:03.845Z,5.35
2018-06-20T01:12:07.859Z,5.45
2018-06-20T01:13:12.014Z,5.60
2018-06-20T01:14:16.130Z,5.90
2018-06-20T01:15:20.196Z,5.35
2018-06-20T01:16:24.424Z,5.05
2018-06-20T01:17:28.632Z,5.33
2018-06-20T01:18:33.042Z,5.85
2018-06-20T01:19:37.053Z,4.83
2018-06-20T01:20:41.082Z,4.90
2018-06-20T01:21:45.121Z,5.33
2018-06-20T01:22:49.118Z,5.45
2018-06-20T01:23:53.154Z,6.90
2018-06-20T01:24:57.413Z,5.45
2018-06-20T01:26:01.454Z,5.00
2018-06-20T01:27:05.530Z,5.47
2018-06-20T01:28:09.562Z,5.10
2018-06-20T01:29:13.594Z,5.60
2018-06-20T01:30:17.675Z,5.42
2018-06-20T01:31:21.735Z,5.97
2018-06-20T01:32:25.747Z,5.50
2018-06-20T01:33:29.775Z,4.95
2018-06-20T01:34:33.978Z,5.67
2018-06-20T01:35:37.988Z,5.87
2018-06-20T01:36:41.982Z,5.80
2018-06-20T01:37:46.027Z,5.37
2018-06-20T01:38:50.090Z,5.60
2018-06-20T01:39:54.183Z,5.20
2018-06-20T01:40:58.164Z,5.40
2018-06-20T01:42:02.140Z,5.20
2018-06-20T01:43:06.233Z,5.65
2018-06-20T01:44:10.417Z,5.35
2018-06-20T01:45:14.420Z,5.33
2018-06-20T01:46:18.169Z,5.80
2018-06-20T01:47:22.063Z,5.25
2018-06-20T01:48:26.155Z,5.87
2018-06-20T01:49:30.189Z,5.85
2018-06-20T01:50:34.190Z,6.00
2018-06-20T01:51:38.205Z,5.20
2018-06-20T01:52:42.253Z,5.08
2018-06-20T01:53:46.251Z,5.85
2018-06-20T01:54:50.246Z,5.72
2018-06-20T01:55:54.262Z,6.40
2018-06-20T01:56:58.287Z,6.40
2018-06-20T01:58:02.293Z,5.50
2018-06-20T01:59:06.285Z,6.17
2018-06-20T02:00:10.280Z,6.08
2018-06-20T02:01:14.332Z,5.10
2018-06-20T02:02:18.362Z,5.80
2018-06-20T02:03:22.371Z,5.53
2018-06-20T02:04:26.421Z,5.85
2018-06-20T02:05:30.494Z,5.00
2018-06-20T02:06:34.524Z,5.60
2018-06-20T02:07:38.648Z,5.33
2018-06-20T02:08:42.724Z,6.12
2018-06-20T02:09:46.724Z,5.35
2018-06-20T02:10:50.778Z,5.35
2018-06-20T02:11:54.832Z,6.08
2018-06-20T02:12:58.906Z,6.35
2018-06-20T02:14:02.927Z,5.90
2018-06-20T02:15:07.028Z,6.10
2018-06-20T02:16:11.060Z,5.30
2018-06-20T02:17:14.863Z,6.42
2018-06-20T02:18:18.929Z,5.53
2018-06-20T02:19:22.983Z,6.55
2018-06-20T02:20:27.028Z,6.25
2018-06-20T02:21:31.036Z,5.97
2018-06-20T02:22:35.074Z,6.08
2018-06-20T02:23:39.112Z,6.30
2018-06-20T02:24:43.179Z,6.72
2018-06-20T02:25:47.207Z,6.15
2018-06-20T02:26:51.219Z,6.28
2018-06-20T02:27:55.223Z,6.60
2018-06-20T02:28:59.281Z,5.78
2018-06-20T02:30:03.682Z,5.95
2018-06-20T02:31:07.847Z,6.95
2018-06-20T02:32:11.846Z,6.72
2018-06-20T02:33:15.863Z,5.97
2018-06-20T02:34:19.859Z,6.05
2018-06-20T02:35:23.940Z,6.17
2018-06-20T02:36:32.373Z,6.42
2018-06-20T02:37:36.640Z,6.12
2018-06-20T02:38:40.658Z,6.35
2018-06-20T02:39:44.649Z,5.60
2018-06-20T02:40:48.720Z,6.40
2018-06-20T02:41:52.701Z,6.12
2018-06-20T02:42:56.791Z,5.97
2018-06-20T02:44:00.762Z,6.37
2018-06-20T02:45:04.826Z,6.28
2018-06-20T02:46:08.855Z,5.85
2018-06-20T02:47:12.862Z,6.10
2018-06-20T02:48:16.918Z,6.30
2018-06-20T02:49:20.903Z,6.90
2018-06-20T02:50:24.999Z,6.37
2018-06-20T02:51:29.169Z,6.62
2018-06-20T02:52:33.203Z,6.72
2018-06-20T02:53:37.318Z,6.25
2018-06-20T02:54:41.335Z,6.60
2018-06-20T02:55:45.474Z,6.35
2018-06-20T02:56:49.483Z,6.70
2018-06-20T02:57:53.516Z,5.85
2018-06-20T02:58:57.493Z,5.67
2018-06-20T03:00:02.041Z,6.55
2018-06-20T03:01:06.239Z,6.60
2018-06-20T03:02:10.307Z,6.95
2018-06-20T03:03:14.353Z,6.80
2018-06-20T03:04:18.537Z,7.22
2018-06-20T03:05:22.579Z,6.37
2018-06-20T03:06:26.689Z,6.22
2018-06-20T03:07:30.717Z,6.40
2018-06-20T03:08:34.755Z,7.03
2018-06-20T03:09:38.777Z,6.53
2018-06-20T03:10:42.911Z,6.90
2018-06-20T03:11:46.923Z,6.50
2018-06-20T03:12:50.986Z,6.55
2018-06-20T03:13:55.018Z,6.37
2018-06-20T03:14:59.009Z,7.47
2018-06-20T03:16:03.037Z,5.95
2018-06-20T03:17:07.054Z,6.40
2018-06-20T03:18:11.067Z,6.30
2018-06-20T03:19:15.710Z,6.85
2018-06-20T03:20:19.751Z,6.55
2018-06-20T03:21:23.841Z,6.35
2018-06-20T03:22:27.840Z,7.45
2018-06-20T03:23:31.852Z,6.08
2018-06-20T03:24:35.840Z,5.75
2018-06-20T03:25:39.932Z,5.83
2018-06-20T03:26:43.911Z,6.58
2018-06-20T03:27:47.942Z,5.83
2018-06-20T03:28:51.938Z,7.00
2018-06-20T03:29:55.977Z,6.78
2018-06-20T03:30:59.953Z,6.12
2018-06-20T03:32:04.345Z,6.50
2018-06-20T03:33:08.378Z,6.72
2018-06-20T03:34:12.438Z,6.72
2018-06-20T03:35:16.428Z,6.75
2018-06-20T03:36:20.143Z,5.85
2018-06-20T03:37:24.055Z,6.55
2018-06-20T03:38:28.109Z,6.85
2018-06-20T03:39:32.218Z,6.95
2018-06-20T03:40:36.245Z,5.67
2018-06-20T03:41:40.735Z,6.37
2018-06-20T03:42:44.746Z,6.65
2018-06-20T03:43:48.746Z,6.55
2018-06-20T03:44:52.780Z,6.47
2018-06-20T03:45:56.804Z,5.55
2018-06-20T03:47:00.847Z,5.87
2018-06-20T03:48:04.843Z,6.40
2018-06-20T03:49:08.838Z,5.47
2018-06-20T03:50:12.864Z,6.62
2018-06-20T03:51:16.912Z,6.65
2018-06-20T03:52:20.987Z,5.85
2018-06-20T03:53:25.003Z,5.95
2018-06-20T03:54:28.986Z,6.00
2018-06-20T03:55:33.046Z,5.45
2018-06-20T03:56:37.013Z,5.80
2018-06-20T03:57:41.151Z,6.20
2018-06-20T03:58:45.182Z,5.58
2018-06-20T03:59:49.212Z,5.40
2018-06-20T04:00:53.292Z,6.35
2018-06-20T04:01:57.301Z,5.85
2018-06-20T04:03:01.157Z,6.30
2018-06-20T04:04:05.200Z,6.22
2018-06-20T04:05:09.248Z,6.10
2018-06-20T04:06:13.434Z,6.55
2018-06-20T04:07:17.503Z,5.90
2018-06-20T04:08:21.192Z,6.20
2018-06-20T04:09:25.102Z,6.25
2018-06-20T04:10:29.087Z,5.45
2018-06-20T04:11:33.135Z,5.92
2018-06-20T04:12:37.250Z,5.87
2018-06-20T04:13:41.218Z,6.55
2018-06-20T04:14:45.208Z,6.22
2018-06-20T04:15:49.184Z,6.72
2018-06-20T04:16:53.273Z,7.05
2018-06-20T04:17:57.355Z,7.20
2018-06-20T04:19:01.387Z,5.60
2018-06-20T04:20:05.423Z,6.83
2018-06-20T04:21:11.042Z,6.80
2018-06-20T04:22:15.121Z,6.08
2018-06-20T04:23:19.148Z,6.60
2018-06-20T04:24:23.154Z,6.12
2018-06-20T04:25:27.234Z,5.92
2018-06-20T04:26:31.290Z,6.37
2018-06-20T04:27:35.327Z,6.30
2018-06-20T04:28:39.513Z,6.28
2018-06-20T04:29:43.548Z,5.60
2018-06-20T04:30:47.578Z,6.53
2018-06-20T04:31:51.635Z,6.70
2018-06-20T04:32:55.920Z,6.75
2018-06-20T04:33:59.968Z,7.65
2018-06-20T04:35:04.024Z,7.20
2018-06-20T04:36:08.193Z,6.60
2018-06-20T04:37:12.199Z,7.15
2018-06-20T04:38:16.258Z,6.70
2018-06-20T04:39:20.568Z,7.30
2018-06-20T04:40:24.640Z,6.30
2018-06-20T04:41:28.626Z,6.03
2018-06-20T04:42:32.675Z,6.55
2018-06-20T04:43:36.822Z,6.58
2018-06-20T04:44:40.950Z,6.78
2018-06-20T04:45:45.041Z,6.92
2018-06-20T04:46:49.083Z,7.28
2018-06-20T04:47:53.131Z,5.83
2018-06-20T04:48:57.213Z,6.72
2018-06-20T04:50:01.316Z,6.45
2018-06-20T04:51:05.356Z,6.92
2018-06-20T04:52:09.397Z,6.97
2018-06-20T04:53:13.454Z,6.37
2018-06-20T04:54:17.535Z,6.85
2018-06-20T04:55:21.585Z,6.92
2018-06-20T04:56:25.595Z,7.87
2018-06-20T04:57:29.636Z,6.70
2018-06-20T04:58:33.701Z,6.40
2018-06-20T04:59:37.694Z,6.92
2018-06-20T05:00:41.762Z,6.47
2018-06-20T05:01:45.794Z,6.67
2018-06-20T05:02:49.798Z,6.95
2018-06-20T05:03:53.826Z,6.85
2018-06-20T05:04:57.814Z,7.80
2018-06-20T05:06:01.808Z,6.97
2018-06-20T05:07:05.879Z,6.95
2018-06-20T05:08:10.215Z,6.08
2018-06-20T05:09:18.601Z,7.25
2018-06-20T05:10:22.631Z,6.45
2018-06-20T05:11:26.804Z,7.20
2018-06-20T05:12:30.870Z,5.60
2018-06-20T05:13:34.948Z,6.70
2018-06-20T05:14:39.175Z,6.35
2018-06-20T05:15:43.191Z,6.80
2018-06-20T05:16:47.227Z,6.53
2018-06-20T05:17:51.271Z,6.42
2018-06-20T05:18:55.406Z,5.47
2018-06-20T05:19:59.395Z,7.28
2018-06-20T05:21:03.427Z,6.30
2018-06-20T05:22:07.515Z,6.00
2018-06-20T05:23:11.542Z,7.72
2018-06-20T05:24:15.607Z,5.92
2018-06-20T05:25:19.635Z,5.50
2018-06-20T05:26:23.725Z,5.72
2018-06-20T05:27:27.764Z,6.20
2018-06-20T05:28:31.783Z,5.62
2018-06-20T05:29:35.776Z,6.47
2018-06-20T05:30:39.767Z,5.78
2018-06-20T05:31:43.817Z,6.47
2018-06-20T05:32:47.928Z,7.03
2018-06-20T05:33:51.905Z,6.62
2018-06-20T05:34:55.935Z,6.20
2018-06-20T05:35:59.995Z,5.95
2018-06-20T05:37:04.064Z,6.85
2018-06-20T05:38:08.126Z,6.10
2018-06-20T05:39:12.189Z,5.53
2018-06-20T05:40:16.137Z,6.00
2018-06-20T05:41:20.114Z,6.58
2018-06-20T05:42:24.115Z,5.60
2018-06-20T05:43:28.149Z,6.62
2018-06-20T05:44:32.248Z,6.30
2018-06-20T05:45:36.279Z,5.33
2018-06-20T05:46:40.298Z,5.50
2018-06-20T05:47:44.316Z,5.65
2018-06-20T05:48:48.628Z,4.95
2018-06-20T05:49:52.603Z,6.12
2018-06-20T05:50:56.641Z,5.40
2018-06-20T05:52:00.718Z,4.80
2018-06-20T05:53:04.819Z,5.35
2018-06-20T05:54:08.923Z,5.28
2018-06-20T05:55:12.959Z,5.20
2018-06-20T05:56:17.070Z,5.62
2018-06-20T05:57:21.082Z,5.92
2018-06-20T05:58:25.209Z,5.40
2018-06-20T05:59:29.247Z,5.08
2018-06-20T06:00:32.981Z,5.25
2018-06-20T06:01:36.914Z,5.00
2018-06-20T06:02:40.970Z,5.53
2018-06-20T06:03:44.990Z,5.03
2018-06-20T06:04:48.995Z,5.50
2018-06-20T06:06:13.098Z,5.20
2018-06-20T06:07:17.107Z,4.90
2018-06-20T06:08:21.106Z,5.60
2018-06-20T06:09:25.136Z,5.60
2018-06-20T06:10:29.114Z,4.55
2018-06-20T06:11:33.117Z,6.45
2018-06-20T06:12:37.138Z,5.25
2018-06-20T06:13:41.182Z,5.30
2018-06-20T06:14:45.238Z,4.92
2018-06-20T06:15:49.245Z,4.90
2018-06-20T06:16:53.327Z,5.22
2018-06-20T06:17:57.321Z,5.70
2018-06-20T06:19:01.316Z,5.15
2018-06-20T06:20:06.069Z,5.00
2018-06-20T06:21:10.134Z,5.17
2018-06-20T06:22:14.174Z,5.25
2018-06-20T06:23:18.275Z,5.35
2018-06-20T06:24:22.369Z,4.72
2018-06-20T06:25:26.424Z,5.12
2018-06-20T06:26:30.498Z,4.58
2018-06-20T06:27:34.552Z,5.00
2018-06-20T06:28:38.561Z,5.08
2018-06-20T06:29:42.611Z,5.33
2018-06-20T06:30:46.631Z,5.17
2018-06-20T06:31:50.686Z,5.37
2018-06-20T06:32:54.699Z,5.22
2018-06-20T06:33:58.911Z,5.50
2018-06-20T06:35:02.915Z,4.95
2018-06-20T06:36:06.950Z,6.85
2018-06-20T06:37:10.968Z,5.70
2018-06-20T06:38:14.967Z,5.30
2018-06-20T06:39:19.031Z,5.92
2018-06-20T06:40:23.047Z,5.50
2018-06-20T06:41:27.066Z,6.35
2018-06-20T06:42:31.103Z,5.20
2018-06-20T06:43:35.061Z,5.50
2018-06-20T06:44:39.055Z,5.58
2018-06-20T06:45:43.074Z,5.00
2018-06-20T06:46:47.141Z,5.28
2018-06-20T06:47:51.166Z,5.95
2018-06-20T06:48:55.235Z,5.53
2018-06-20T06:49:59.368Z,5.50
2018-06-20T06:51:03.269Z,10.43
2018-06-20T06:52:07.330Z,9.90
2018-06-20T06:53:11.384Z,6.42
2018-06-20T06:54:15.391Z,6.50
2018-06-20T06:55:19.539Z,6.62
2018-06-20T06:56:23.576Z,5.03
2018-06-20T06:57:27.622Z,8.65
2018-06-20T06:58:31.816Z,9.85
2018-06-20T06:59:35.833Z,10.03
2018-06-20T07:00:39.881Z,5.25
2018-06-20T07:01:44.230Z,4.85
2018-06-20T07:02:48.322Z,5.40
2018-06-20T07:03:52.316Z,4.40
2018-06-20T07:04:56.311Z,4.12
2018-06-20T07:06:00.339Z,4.75
2018-06-20T07:07:04.338Z,4.25
2018-06-20T07:08:08.412Z,4.25
2018-06-20T07:09:12.456Z,4.95
2018-06-20T07:10:16.512Z,5.25
2018-06-20T07:11:20.586Z,4.22
2018-06-20T07:12:24.738Z,5.00
2018-06-20T07:13:28.726Z,4.53
2018-06-20T07:14:32.764Z,4.22
2018-06-20T07:15:36.793Z,3.80
2018-06-20T07:16:40.850Z,4.05
2018-06-20T07:17:44.890Z,4.92
2018-06-20T07:18:48.917Z,4.08
2018-06-20T07:19:52.995Z,4.75
2018-06-20T07:20:57.066Z,4.10
2018-06-20T07:22:01.063Z,4.45
2018-06-20T07:23:05.119Z,4.40
2018-06-20T07:24:09.163Z,3.85
2018-06-20T07:25:13.113Z,4.08
2018-06-20T07:26:17.121Z,3.62
2018-06-20T07:27:21.241Z,5.25
2018-06-20T07:28:25.273Z,3.70
2018-06-20T07:29:29.321Z,4.08
2018-06-20T07:30:33.422Z,3.85
2018-06-20T07:31:37.429Z,3.52
2018-06-20T07:32:41.421Z,3.95
2018-06-20T07:33:45.453Z,3.98
2018-06-20T07:34:49.536Z,3.30
2018-06-20T07:35:53.621Z,3.35
2018-06-20T07:36:57.570Z,3.27
2018-06-20T07:38:01.586Z,3.80
2018-06-20T07:39:06.920Z,3.70
2018-06-20T07:40:11.187Z,3.92
2018-06-20T07:41:15.384Z,3.10
2018-06-20T07:42:19.776Z,3.27
2018-06-20T07:43:23.815Z,3.65
2018-06-20T07:44:27.811Z,3.50
2018-06-20T07:45:31.821Z,3.50
2018-06-20T07:46:36.032Z,3.35
2018-06-20T07:47:40.034Z,3.60
2018-06-20T07:48:44.153Z,3.52
2018-06-20T07:49:48.267Z,3.25
2018-06-20T07:50:52.259Z,3.65
2018-06-20T07:51:56.276Z,2.95
2018-06-20T07:53:00.296Z,3.67
2018-06-20T07:54:04.351Z,2.75
2018-06-20T07:55:08.397Z,3.35
2018-06-20T07:56:12.467Z,3.30
2018-06-20T07:57:16.563Z,3.80
2018-06-20T07:58:25.969Z,3.33
2018-06-20T07:59:35.574Z,3.20
2018-06-20T08:00:44.957Z,3.47
2018-06-20T08:02:05.768Z,3.20
2018-06-20T08:03:18.579Z,3.60
2018-06-20T08:04:27.927Z,3.92
2018-06-20T08:05:37.367Z,3.80
2018-06-20T08:06:46.914Z,3.75
2018-06-20T08:07:56.506Z,3.22
2018-06-20T08:09:05.854Z,3.50
2018-06-20T08:11:19.013Z,3.58
2018-06-20T08:12:28.406Z,2.72
2018-06-20T08:13:37.741Z,3.58
2018-06-20T08:14:47.168Z,3.00
2018-06-20T08:15:56.618Z,3.20
2018-06-20T08:17:04.400Z,3.25
2018-06-20T08:19:14.916Z,3.55
2018-06-20T08:20:19.971Z,3.27
2018-06-20T08:21:24.027Z,3.08
2018-06-20T08:22:28.795Z,3.22
2018-06-20T08:23:33.002Z,3.90
2018-06-20T08:24:42.104Z,3.37
2018-06-20T08:25:46.747Z,3.70
2018-06-20T08:26:50.786Z,3.65
2018-06-20T08:27:54.821Z,3.50
2018-06-20T08:28:58.885Z,3.70
2018-06-20T08:30:03.997Z,3.40
2018-06-20T08:31:07.938Z,3.50
2018-06-20T08:32:11.970Z,3.40
2018-06-20T08:33:16.051Z,3.33
2018-06-20T08:34:20.073Z,2.90
2018-06-20T08:35:24.047Z,3.67
2018-06-20T08:36:28.072Z,3.47
2018-06-20T08:37:32.169Z,3.40
2018-06-20T08:38:36.203Z,3.50
2018-06-20T08:39:40.437Z,3.17
2018-06-20T08:40:44.502Z,3.20
2018-06-20T08:41:48.890Z,3.87
2018-06-20T08:42:52.878Z,2.90
2018-06-20T08:43:56.963Z,2.80
2018-06-20T08:45:00.987Z,3.45
2018-06-20T08:46:05.082Z,2.60
2018-06-20T08:47:09.142Z,3.10
2018-06-20T08:48:13.191Z,3.10
2018-06-20T08:49:17.246Z,3.00
2018-06-20T08:50:21.233Z,3.17
2018-06-20T08:51:25.272Z,2.65
2018-06-20T08:52:29.414Z,3.00
2018-06-20T08:53:33.437Z,2.70
2018-06-20T08:54:37.493Z,2.47
2018-06-20T08:55:41.552Z,3.20
2018-06-20T08:56:45.606Z,3.10
2018-06-20T08:57:49.652Z,2.62
2018-06-20T08:58:53.743Z,2.60
2018-06-20T08:59:57.745Z,2.80
2018-06-20T09:01:02.872Z,2.87
2018-06-20T09:02:07.038Z,2.70
2018-06-20T09:03:11.116Z,2.80
2018-06-20T09:04:20.513Z,2.60
2018-06-20T09:05:29.923Z,2.55
2018-06-20T09:06:39.197Z,2.83
2018-06-20T09:07:48.567Z,2.55
2018-06-20T09:08:57.910Z,2.40
2018-06-20T09:10:07.452Z,2.83
2018-06-20T09:11:16.772Z,2.50
2018-06-20T09:12:26.114Z,2.55
2018-06-20T09:13:35.509Z,2.47
2018-06-20T09:14:44.975Z,2.00
2018-06-20T09:15:54.465Z,2.30
2018-06-20T09:17:03.900Z,2.60
2018-06-20T09:18:13.622Z,2.20
2018-06-20T09:19:23.183Z,2.40
2018-06-20T09:20:27.201Z,2.00
2018-06-20T09:21:31.181Z,2.40
2018-06-20T09:22:35.209Z,1.90
2018-06-20T09:23:38.968Z,2.15
2018-06-20T09:24:42.934Z,2.05
2018-06-20T09:25:47.024Z,3.37
2018-06-20T09:26:51.089Z,2.10
2018-06-20T09:27:54.871Z,2.50
2018-06-20T09:28:58.785Z,1.98
2018-06-20T09:30:02.839Z,2.50
2018-06-20T09:31:06.922Z,2.70
2018-06-20T09:32:11.340Z,2.40
2018-06-20T09:33:15.413Z,2.37
2018-06-20T09:34:19.531Z,2.80
2018-06-20T09:35:23.626Z,2.33
2018-06-20T09:36:28.834Z,2.30
2018-06-20T09:37:32.855Z,2.20
2018-06-20T09:38:36.905Z,2.40
2018-06-20T09:39:40.950Z,2.37
2018-06-20T09:40:44.937Z,2.60
2018-06-20T09:41:49.022Z,3.10
2018-06-20T09:42:53.075Z,2.50
2018-06-20T09:43:57.250Z,2.35
2018-06-20T09:45:01.284Z,2.80
2018-06-20T09:46:05.318Z,2.10
2018-06-20T09:47:09.429Z,2.20
2018-06-20T09:48:13.762Z,2.15
2018-06-20T09:49:17.822Z,2.22
2018-06-20T09:50:27.214Z,2.62
2018-06-20T09:51:31.235Z,2.80
2018-06-20T09:52:35.321Z,2.87
2018-06-20T09:53:39.347Z,2.52
2018-06-20T09:54:43.438Z,2.35
2018-06-20T09:55:47.479Z,2.80
2018-06-20T09:56:51.535Z,2.60
2018-06-20T09:57:55.580Z,3.20
2018-06-20T09:59:03.874Z,2.27
2018-06-20T10:00:13.448Z,2.70
2018-06-20T10:01:22.822Z,2.50
2018-06-20T10:02:32.154Z,3.10
2018-06-20T10:03:41.594Z,3.17
2018-06-20T10:04:51.007Z,2.22
2018-06-20T10:06:00.279Z,2.45
2018-06-20T10:07:09.702Z,2.20
2018-06-20T10:08:19.039Z,2.65
2018-06-20T10:09:28.410Z,2.20
2018-06-20T10:10:37.839Z,2.60
2018-06-20T10:11:47.324Z,2.70
2018-06-20T10:12:56.869Z,3.10
2018-06-20T10:14:01.979Z,2.40
2018-06-20T10:15:06.030Z,2.67
2018-06-20T10:16:10.061Z,2.75
2018-06-20T10:17:14.136Z,2.77
2018-06-20T10:18:18.201Z,2.50
2018-06-20T10:19:22.254Z,2.70
2018-06-20T10:20:28.403Z,2.62
2018-06-20T10:21:32.435Z,2.10
2018-06-20T10:22:36.466Z,2.62
2018-06-20T10:23:40.689Z,2.55
2018-06-20T10:24:44.775Z,2.33
2018-06-20T10:25:48.829Z,2.70
2018-06-20T10:26:52.817Z,2.33
2018-06-20T10:27:57.304Z,2.27
2018-06-20T10:29:01.302Z,2.00
2018-06-20T10:30:05.378Z,3.35
2018-06-20T10:31:09.431Z,2.52
2018-06-20T10:32:13.394Z,2.80
2018-06-20T10:33:17.474Z,3.52
2018-06-20T10:34:21.510Z,2.55
2018-06-20T10:35:25.515Z,3.02
2018-06-20T10:36:29.654Z,2.30
2018-06-20T10:37:33.626Z,2.47
2018-06-20T10:38:37.652Z,3.00
2018-06-20T10:39:41.615Z,2.45
2018-06-20T10:40:45.623Z,2.58
2018-06-20T10:41:49.618Z,2.27
2018-06-20T10:42:53.702Z,2.50
2018-06-20T10:43:57.728Z,2.55
2018-06-20T10:45:07.127Z,2.70
2018-06-20T10:46:16.531Z,3.00
2018-06-20T10:47:26.068Z,2.77
2018-06-20T10:48:30.049Z,3.17
2018-06-20T10:49:34.114Z,2.52
2018-06-20T10:50:38.151Z,2.90
2018-06-20T10:51:42.666Z,2.55
2018-06-20T10:52:46.647Z,2.65
2018-06-20T10:53:50.698Z,2.22
2018-06-20T10:54:54.762Z,2.35
2018-06-20T10:55:58.803Z,2.42
2018-06-20T10:57:08.140Z,2.17
2018-06-20T10:58:17.644Z,2.72
2018-06-20T10:59:27.038Z,2.37
2018-06-20T11:00:36.509Z,2.33
2018-06-20T11:01:45.721Z,2.10
2018-06-20T11:02:55.131Z,3.58
2018-06-20T11:04:04.540Z,2.10
2018-06-20T11:05:14.032Z,2.47
2018-06-20T11:06:23.611Z,2.37
2018-06-20T11:07:33.102Z,2.65
2018-06-20T11:08:42.447Z,2.90
2018-06-20T11:09:51.990Z,2.62
2018-06-20T11:11:01.579Z,2.60
2018-06-20T11:12:11.039Z,2.50
2018-06-20T11:13:15.978Z,2.45
2018-06-20T11:14:19.981Z,2.27
2018-06-20T11:15:24.174Z,2.65
2018-06-20T11:16:28.148Z,2.50
2018-06-20T11:17:32.139Z,2.47
2018-06-20T11:18:39.089Z,2.20
2018-06-20T11:19:43.136Z,2.10
2018-06-20T11:20:52.482Z,1.90
2018-06-20T11:21:56.472Z,2.70
2018-06-20T11:23:00.798Z,2.60
2018-06-20T11:24:04.828Z,2.17
2018-06-20T11:25:08.916Z,2.50
2018-06-20T11:26:12.929Z,2.47
2018-06-20T11:27:16.938Z,2.10
2018-06-20T11:28:21.024Z,2.80
2018-06-20T11:29:25.091Z,2.95
2018-06-20T11:30:29.133Z,2.62
2018-06-20T11:31:33.083Z,2.55
2018-06-20T11:32:37.119Z,2.80
2018-06-20T11:33:41.115Z,2.80
2018-06-20T11:34:45.153Z,2.50
2018-06-20T11:35:49.203Z,2.60
2018-06-20T11:36:53.315Z,2.83
2018-06-20T11:37:57.455Z,2.90
2018-06-20T11:39:01.514Z,2.98
2018-06-20T11:40:05.513Z,2.30
2018-06-20T11:41:09.500Z,2.75
2018-06-20T11:42:13.529Z,2.80
2018-06-20T11:43:17.602Z,2.25
2018-06-20T11:44:21.621Z,2.85
2018-06-20T11:45:29.857Z,2.33
2018-06-20T11:46:39.316Z,2.00
2018-06-20T11:47:44.682Z,3.15
2018-06-20T11:48:48.713Z,2.33
2018-06-20T11:49:52.807Z,2.92
2018-06-20T11:50:56.798Z,3.02
2018-06-20T11:52:00.898Z,2.98
2018-06-20T11:53:07.438Z,2.30
2018-06-20T11:54:11.648Z,2.60
2018-06-20T11:55:21.276Z,1.98
2018-06-20T11:56:25.297Z,2.15
2018-06-20T11:57:29.383Z,2.40
2018-06-20T11:58:38.934Z,2.62
2018-06-20T11:59:48.347Z,2.20
2018-06-20T12:00:57.712Z,2.30
2018-06-20T12:02:07.036Z,2.60
2018-06-20T12:03:16.446Z,2.47
2018-06-20T12:05:26.141Z,2.75
2018-06-20T12:06:35.529Z,2.33
2018-06-20T12:08:45.915Z,2.08
2018-06-20T12:09:55.272Z,2.22
2018-06-20T12:11:04.605Z,2.30
2018-06-20T12:12:14.277Z,2.40
2018-06-20T12:13:23.599Z,2.58
2018-06-20T12:14:32.829Z,2.42
2018-06-20T12:15:42.213Z,2.30
2018-06-20T12:16:48.295Z,3.08
2018-06-20T12:17:57.667Z,2.70
2018-06-20T12:19:07.033Z,3.25
2018-06-20T12:20:16.493Z,2.30
2018-06-20T12:21:26.018Z,2.50
2018-06-20T12:22:35.437Z,2.75
2018-06-20T12:23:44.813Z,3.98
2018-06-20T12:24:54.273Z,2.92
2018-06-20T12:26:03.664Z,2.50
2018-06-20T12:27:12.991Z,2.40
2018-06-20T12:28:22.408Z,2.25
2018-06-20T12:29:31.783Z,2.58
2018-06-20T12:30:41.311Z,2.80
2018-06-20T12:31:50.918Z,2.42
2018-06-20T12:33:00.328Z,2.65
2018-06-20T12:34:09.675Z,3.80
2018-06-20T12:35:19.250Z,8.45
2018-06-20T12:36:28.889Z,4.20
2018-06-20T12:37:38.537Z,2.62
2018-06-20T12:38:47.810Z,2.80
2018-06-20T12:39:56.094Z,2.60
2018-06-20T12:41:02.074Z,2.80
2018-06-20T12:42:11.544Z,2.62
2018-06-20T12:43:21.191Z,3.12
2018-06-20T12:44:30.346Z,2.87
2018-06-20T12:45:34.390Z,2.98
2018-06-20T12:46:58.447Z,2.80
2018-06-20T12:48:02.389Z,2.58
2018-06-20T12:49:06.708Z,3.10
2018-06-20T12:50:18.898Z,2.90
2018-06-20T12:51:22.923Z,3.40
2018-06-20T12:52:27.155Z,2.60
2018-06-20T12:53:31.159Z,3.25
2018-06-20T12:54:35.135Z,3.52
2018-06-20T12:55:39.181Z,3.00
2018-06-20T12:56:43.167Z,2.27
2018-06-20T12:57:47.186Z,2.87
2018-06-20T12:58:51.336Z,3.20
2018-06-20T12:59:55.370Z,3.05
2018-06-20T13:00:59.153Z,2.60
2018-06-20T13:02:03.087Z,2.60
2018-06-20T13:03:07.102Z,2.85
2018-06-20T13:04:11.131Z,2.70
2018-06-20T13:05:15.525Z,2.75
2018-06-20T13:06:19.549Z,2.52
2018-06-20T13:07:23.555Z,2.30
2018-06-20T13:08:27.568Z,3.05
2018-06-20T13:09:31.596Z,3.30
2018-06-20T13:10:35.569Z,2.70
2018-06-20T13:11:39.655Z,2.30
2018-06-20T13:12:43.996Z,3.05
2018-06-20T13:13:47.770Z,2.80
2018-06-20T13:14:51.646Z,2.77
2018-06-20T13:15:55.626Z,3.00
2018-06-20T13:16:59.696Z,2.80
2018-06-20T13:18:03.767Z,3.00
2018-06-20T13:19:07.825Z,2.77
2018-06-20T13:20:11.932Z,3.20
2018-06-20T13:21:15.883Z,2.90
2018-06-20T13:22:19.946Z,3.10
2018-06-20T13:23:24.003Z,2.80
2018-06-20T13:24:28.011Z,3.15
2018-06-20T13:25:33.299Z,2.90
2018-06-20T13:26:37.335Z,3.00
2018-06-20T13:27:46.264Z,2.50
2018-06-20T13:28:50.493Z,2.87
2018-06-20T13:29:59.974Z,2.80
2018-06-20T13:31:09.322Z,2.50
2018-06-20T13:32:18.839Z,2.85
2018-06-20T13:33:28.257Z,2.62
2018-06-20T13:34:37.650Z,2.22
2018-06-20T13:35:46.994Z,2.52
2018-06-20T13:36:56.422Z,3.10
2018-06-20T13:38:05.879Z,2.70
2018-06-20T13:39:15.262Z,2.30
2018-06-20T13:40:24.612Z,2.40
2018-06-20T13:41:32.851Z,2.47
2018-06-20T13:42:42.444Z,2.90
2018-06-20T13:43:51.902Z,2.85
2018-06-20T13:45:00.139Z,2.90
2018-06-20T13:46:09.526Z,3.47
2018-06-20T13:47:18.789Z,3.50
2018-06-20T13:48:29.238Z,2.75
2018-06-20T13:49:33.341Z,2.75
2018-06-20T13:50:37.391Z,2.90
2018-06-20T13:51:41.447Z,2.72
2018-06-20T13:52:45.456Z,2.60
2018-06-20T13:53:49.456Z,2.80
2018-06-20T13:54:53.539Z,3.25
2018-06-20T13:55:57.551Z,3.00
2018-06-20T13:57:01.569Z,2.80
2018-06-20T13:58:05.770Z,2.90
2018-06-20T13:59:09.807Z,2.30
2018-06-20T14:00:13.873Z,3.05
2018-06-20T14:01:17.910Z,3.85
2018-06-20T14:02:21.931Z,2.60
2018-06-20T14:03:26.022Z,2.98
2018-06-20T14:04:30.043Z,3.12
2018-06-20T14:05:34.071Z,3.05
2018-06-20T14:06:38.050Z,3.40
2018-06-20T14:07:42.082Z,3.12
2018-06-20T14:08:46.649Z,2.90
2018-06-20T14:09:50.425Z,2.70
2018-06-20T14:10:54.348Z,3.47
2018-06-20T14:11:58.371Z,2.87
2018-06-20T14:13:02.420Z,3.45
2018-06-20T14:14:06.489Z,2.85
2018-06-20T14:15:10.565Z,2.58
2018-06-20T14:16:14.687Z,3.10
2018-06-20T14:17:18.520Z,3.50
2018-06-20T14:18:22.426Z,2.55
2018-06-20T14:20:34.638Z,2.50
2018-06-20T14:21:40.145Z,2.20
2018-06-20T14:22:44.219Z,3.22
2018-06-20T14:23:48.274Z,2.95
2018-06-20T14:24:52.324Z,2.50
2018-06-20T14:25:56.382Z,3.70
2018-06-20T14:27:00.389Z,4.00
2018-06-20T14:28:04.609Z,3.30
2018-06-20T14:29:09.513Z,3.27
2018-06-20T14:30:17.827Z,3.08